Date,TemperatureHighF,TemperatureAvgF,TemperatureLowF,DewpointHighF,DewpointAvgF,DewpointLowF,HumidityHigh,HumidityAvg,HumidityLow,PressureMaxIn,PressureMinIn,WindSpeedMaxMPH,WindSpeedAvgMPH,GustSpeedMaxMPH,PrecipitationSumIn
2013-1-1,48.4,39.5,33.0,37.1,32.4,29.9,92,77,53,30.27,30.20,10,1,11,0.00
2013-1-2,53.1,37.8,32.5,38.0,29.7,25.9,87,73,44,30.27,30.11,9,1,9,0.00
2013-1-3,52.1,42.6,32.5,37.0,34.4,28.0,87,74,54,30.26,30.14,8,2,10,0.00
2013-1-4,53.7,44.1,36.2,40.2,35.7,29.0,86,73,52,30.29,30.19,7,1,9,0.00
2013-1-5,51.9,42.8,37.6,41.5,36.9,33.4,94,80,57,30.28,30.09,7,1,7,0.00
2013-1-6,47.1,42.5,39.0,43.0,40.9,38.0,98,94,79,30.18,30.08,6,0,6,0.11
2013-1-7,49.2,41.2,36.7,43.0,38.2,34.0,98,89,72,30.25,30.13,9,1,13,0.01
2013-1-8,52.4,42.8,37.5,45.0,40.7,37.0,100,92,76,30.26,30.15,5,1,6,0.00
2013-1-9,48.7,43.1,37.5,44.0,41.0,37.0,98,92,84,30.18,29.90,13,2,16,0.37
2013-1-10,44.0,36.6,30.4,38.0,33.0,29.0,99,88,64,30.14,30.00,6,2,11,0.01
2013-1-11,45.1,34.1,27.7,34.0,28.6,26.0,96,82,53,30.24,30.14,5,1,7,0.00
2013-1-12,42.2,35.4,27.1,28.0,22.9,18.5,90,61,41,30.25,30.16,6,1,11,0.00
2013-1-13,42.7,33.3,25.4,26.6,21.4,11.0,87,63,36,30.25,30.13,13,3,20,0.00
2013-1-14,46.2,36.7,28.9,24.0,18.2,11.0,72,48,33,30.36,30.16,10,2,16,0.00
2013-1-15,47.2,36.7,28.7,32.0,27.8,23.0,83,71,49,30.48,30.36,4,1,7,0.00
2013-1-16,54.5,41.5,31.2,34.0,30.7,23.0,87,68,31,30.42,30.25,5,1,8,0.00
2013-1-17,62.1,45.5,33.5,38.0,31.7,25.0,76,60,35,30.26,30.15,5,1,9,0.00
2013-1-18,63.5,50.4,40.1,37.1,33.3,24.0,69,53,29,30.24,30.13,9,2,10,0.00
2013-1-19,61.1,48.9,39.3,38.2,32.6,25.0,71,54,31,30.28,30.17,12,2,12,0.00
2013-1-20,62.9,48.5,40.7,35.5,30.4,23.4,72,51,26,30.24,30.13,10,2,10,0.00
2013-1-21,61.7,49.2,39.0,38.2,32.0,23.5,70,52,33,30.19,30.11,13,1,13,0.00
2013-1-22,66.4,50.0,41.7,41.0,32.5,23.0,71,52,24,30.16,30.03,7,2,11,0.00
2013-1-23,62.2,51.4,46.6,45.0,35.1,26.0,85,56,33,30.08,29.99,7,1,8,0.05
2013-1-24,58.5,52.1,49.8,52.0,48.4,43.0,97,88,73,30.17,30.05,9,1,11,0.03
2013-1-25,60.4,53.6,49.7,55.7,51.3,49.0,99,92,78,30.27,30.03,7,1,8,0.05
2013-1-26,51.6,47.6,40.4,50.0,44.5,37.0,99,89,68,30.03,29.93,15,3,16,0.00
2013-1-27,48.4,39.8,35.7,40.3,36.8,33.0,97,89,69,30.15,30.01,8,1,12,0.09
2013-1-28,49.9,40.8,33.0,36.0,32.0,28.0,89,72,55,30.29,30.15,8,2,13,0.00
2013-1-29,52.2,43.6,35.6,39.0,35.4,31.0,87,74,56,30.34,30.26,6,2,10,0.00
2013-1-30,56.1,47.6,40.4,42.0,39.5,36.0,89,74,59,30.36,30.29,14,2,14,0.00
2013-1-31,61.7,50.9,38.2,45.1,42.2,35.0,91,73,52,30.34,30.20,7,1,8,0.00
2013-2-1,63.9,51.6,42.3,43.9,39.4,32.8,81,64,41,30.22,30.13,10,2,10,0.00
2013-2-2,64.7,49.4,44.8,46.0,39.4,36.0,81,69,39,30.27,30.19,8,1,10,0.00
2013-2-3,59.9,49.9,40.2,44.0,38.5,31.0,86,66,43,30.22,30.11,8,1,10,0.00
2013-2-4,62.0,49.7,40.7,45.0,38.7,31.0,88,67,43,30.17,30.06,6,1,8,0.00
2013-2-5,51.1,44.2,38.1,45.0,39.9,35.0,93,84,73,30.14,30.03,7,2,10,0.00
2013-2-6,54.9,46.9,34.4,39.8,35.2,30.0,93,65,47,30.17,30.07,8,2,11,0.00
2013-2-7,47.1,41.8,36.7,41.1,37.7,33.5,93,85,73,30.15,29.97,13,4,13,0.02
2013-2-8,51.7,39.2,31.2,39.4,32.0,20.0,94,78,39,29.97,29.89,11,2,19,0.00
2013-2-9,50.6,41.8,31.7,35.6,29.7,23.0,78,63,46,30.10,29.93,9,2,11,0.00
2013-2-10,52.9,42.7,31.1,36.0,29.1,21.0,83,61,32,30.12,30.00,7,2,11,0.00
2013-2-11,56.7,44.0,36.0,34.0,29.1,20.0,75,57,36,30.24,30.06,9,2,17,0.00
2013-2-12,55.7,40.9,33.6,37.0,31.3,27.0,83,70,47,30.37,30.23,6,2,8,0.00
2013-2-13,58.5,45.5,35.6,39.0,35.8,32.0,86,71,48,30.33,30.21,6,1,7,0.00
2013-2-14,63.1,54.0,37.6,43.7,40.7,32.0,85,62,47,30.24,30.16,7,1,8,0.00
2013-2-15,65.8,52.4,41.2,43.0,37.3,30.0,80,58,37,30.28,30.21,5,2,8,0.00
2013-2-16,65.8,53.4,45.6,40.0,34.2,27.0,75,50,32,30.25,30.02,12,2,12,0.00
2013-2-17,60.5,49.6,42.4,43.0,37.9,32.0,79,66,42,30.02,29.95,7,2,9,0.00
2013-2-18,56.0,44.4,39.4,43.0,36.7,33.0,83,75,60,30.00,29.89,10,2,21,0.00
2013-2-19,41.0,36.8,31.9,38.0,34.7,30.0,96,92,82,29.92,29.71,17,4,17,0.33
2013-2-20,54.8,40.9,30.7,39.0,32.4,29.0,97,75,46,30.02,29.80,8,2,13,0.01
2013-2-21,54.0,43.3,34.1,38.0,32.7,28.0,91,69,43,30.15,30.02,5,2,13,0.00
2013-2-22,56.0,47.9,34.7,38.4,34.9,28.9,82,61,45,30.23,30.14,14,2,14,0.00
2013-2-23,54.9,47.7,42.3,42.0,29.8,15.5,89,54,29,30.20,30.11,14,3,17,0.00
2013-2-24,58.6,46.1,34.7,31.3,26.0,18.8,71,47,30,30.24,30.14,12,2,13,0.00
2013-2-25,59.1,45.6,36.6,36.0,31.1,27.0,74,59,36,30.26,30.16,10,2,10,0.00
2013-2-26,63.8,52.0,38.9,31.0,23.3,10.0,68,36,15,30.19,30.09,10,2,13,0.00
2013-2-27,65.2,51.7,39.4,33.0,26.3,18.0,55,39,20,30.34,30.19,11,2,15,0.00
2013-2-28,67.5,54.3,44.5,41.0,35.5,30.0,73,51,33,30.41,30.33,6,2,11,0.00
2013-3-1,69.8,55.9,43.2,47.0,43.6,38.0,82,65,42,30.40,30.23,9,2,9,0.00
2013-3-2,69.5,58.7,50.7,48.5,43.3,39.8,77,58,34,30.24,30.04,11,1,11,0.00
2013-3-3,59.0,53.7,47.7,49.0,46.4,43.9,92,77,63,30.05,29.98,13,2,13,0.00
2013-3-4,63.5,52.2,42.3,48.0,44.3,39.0,92,76,54,30.09,30.00,8,2,11,0.00
2013-3-5,57.3,49.5,42.9,44.0,40.0,33.8,94,72,47,30.00,29.82,19,2,19,0.02
2013-3-6,50.8,44.8,41.1,43.0,39.5,36.0,95,82,58,30.05,29.82,26,4,26,0.38
2013-3-7,53.2,46.2,37.2,41.1,38.3,35.0,91,75,55,29.99,29.85,7,2,11,0.00
2013-3-8,58.2,47.2,36.7,42.0,37.6,34.0,90,71,47,29.99,29.79,9,3,19,0.00
2013-3-9,63.1,53.0,38.6,44.0,35.8,27.5,95,55,32,30.27,30.00,13,3,13,0.00
2013-3-10,62.0,52.5,38.6,44.4,38.3,24.0,83,59,41,30.33,30.24,13,1,14,0.00
2013-3-11,67.5,54.2,43.2,45.0,41.1,36.0,85,64,41,30.25,30.09,10,2,12,0.00
2013-3-12,71.1,57.8,46.2,49.0,45.4,41.0,85,66,43,30.14,30.05,5,2,9,0.00
2013-3-13,73.7,62.0,51.3,53.0,47.2,43.0,80,60,36,30.14,30.05,6,1,10,0.00
2013-3-14,74.5,63.1,54.1,51.0,45.8,39.0,73,54,38,30.11,30.03,5,2,9,0.00
2013-3-15,72.4,60.1,49.9,51.0,45.5,41.0,76,60,41,30.06,29.98,7,1,12,0.00
2013-3-16,71.7,57.9,47.1,48.0,41.4,37.0,78,57,31,30.03,29.96,6,1,10,0.00
2013-3-17,64.8,57.6,43.3,43.6,38.1,31.6,73,50,35,30.09,30.00,9,1,10,0.00
2013-3-18,65.0,55.1,44.1,42.0,37.7,32.0,67,54,36,30.08,30.01,7,1,10,0.00
2013-3-19,66.5,56.6,48.0,50.0,43.2,35.9,94,64,33,30.11,30.03,8,2,11,0.16
2013-3-20,54.8,51.6,48.4,52.8,49.9,47.0,98,94,84,30.10,30.06,14,4,16,0.55
2013-3-21,60.1,51.9,45.3,51.0,43.7,30.0,98,77,36,30.08,29.97,6,2,12,0.00
2013-3-22,60.1,49.5,39.5,41.0,30.4,23.0,87,52,26,30.05,29.97,21,2,21,0.00
2013-3-23,62.9,51.0,38.2,35.8,30.2,23.8,63,46,27,30.11,30.02,13,2,14,0.00
2013-3-24,68.6,58.3,43.0,40.7,37.5,32.0,69,48,29,30.07,29.94,8,1,15,0.00
2013-3-25,67.6,55.4,45.1,45.0,41.6,38.0,77,61,41,29.97,29.88,8,2,10,0.00
2013-3-26,67.2,54.9,42.2,48.0,41.9,38.0,88,63,42,29.95,29.90,9,2,11,0.00
2013-3-27,66.0,55.9,46.8,50.0,45.7,41.0,82,70,53,29.99,29.90,6,1,11,0.00
2013-3-28,62.4,56.7,50.5,51.0,47.4,43.1,88,72,51,30.09,29.98,8,1,8,0.00
2013-3-29,74.8,60.8,50.5,52.0,45.1,41.0,79,59,33,30.10,30.01,7,2,14,0.00
2013-3-30,73.0,62.0,53.2,53.0,47.4,43.0,73,60,46,30.03,29.95,6,2,11,0.00
2013-3-31,66.0,57.3,49.4,54.5,49.3,44.8,98,77,50,30.09,29.98,11,2,11,0.66
2013-4-1,64.9,56.2,46.9,51.0,47.9,45.0,97,75,52,30.16,30.05,9,1,9,0.01
2013-4-2,66.6,55.5,44.5,51.0,46.4,41.0,90,73,53,30.17,30.08,5,1,11,0.00
2013-4-3,71.2,59.5,48.4,55.2,49.8,44.0,90,72,53,30.13,29.96,11,2,11,0.00
2013-4-4,57.1,53.0,47.1,55.8,50.9,44.0,97,93,72,30.11,29.95,12,2,13,0.09
2013-4-5,60.4,52.2,49.6,51.8,49.6,48.0,98,91,68,30.15,30.09,8,2,10,0.05
2013-4-6,63.4,54.1,48.1,52.5,49.0,46.0,95,84,64,30.17,30.09,11,3,11,0.03
2013-4-7,63.6,54.3,45.2,54.0,48.5,43.0,94,81,65,30.12,29.78,8,3,16,0.01
2013-4-8,63.2,52.1,42.9,45.0,36.2,-99.9,97,62,23,29.99,29.70,20,-2,20,0.01
2013-4-9,67.3,59.3,43.7,39.3,33.1,26.9,61,38,26,30.09,29.99,28,3,28,0.00
2013-4-10,79.1,65.0,48.0,51.9,42.5,27.6,67,45,28,30.17,29.95,10,1,11,0.00
2013-4-11,73.2,61.5,50.6,53.0,43.8,36.0,88,55,29,29.96,29.79,8,1,13,0.00
2013-4-12,76.7,62.1,49.0,50.5,44.3,36.0,74,54,26,29.87,29.78,7,1,7,0.00
2013-4-13,74.3,66.3,49.5,51.0,46.4,41.0,73,50,36,29.84,29.75,8,1,8,0.00
2013-4-14,68.4,56.7,45.6,48.0,40.1,31.0,86,58,26,29.85,29.72,7,1,11,0.00
2013-4-15,58.3,47.0,40.5,45.0,40.4,35.0,92,79,44,29.89,29.79,7,2,10,0.00
2013-4-16,61.1,48.8,37.5,39.0,29.6,17.0,92,54,21,30.16,29.89,10,2,18,0.00
2013-4-17,63.6,52.8,40.5,29.0,24.5,20.0,53,35,23,30.23,30.16,13,3,18,0.00
2013-4-18,71.0,57.5,43.5,39.0,29.8,22.0,56,36,21,30.26,30.18,7,2,15,0.00
2013-4-19,76.8,61.6,47.2,44.0,40.2,36.0,66,48,27,30.23,30.05,8,1,9,0.00
2013-4-20,77.1,64.1,52.4,51.0,41.2,34.0,66,46,23,30.06,29.95,10,2,14,0.00
2013-4-21,80.4,67.5,53.1,51.0,43.8,38.6,65,45,24,30.01,29.92,10,1,11,0.00
2013-4-22,83.2,68.0,55.7,51.0,42.5,31.0,64,43,18,29.95,29.82,12,2,15,0.00
2013-4-23,79.5,68.3,58.3,42.0,31.0,18.0,46,26,17,29.88,29.80,13,2,15,0.00
2013-4-24,83.4,66.6,55.0,48.0,35.3,25.0,73,36,12,29.84,29.71,14,4,16,0.00
2013-4-25,70.2,57.7,46.0,51.0,47.2,42.0,91,70,47,30.09,29.85,11,4,15,0.00
2013-4-26,76.6,63.5,46.8,53.0,49.2,45.0,93,63,38,30.21,30.09,10,2,10,0.00
2013-4-27,83.1,68.5,54.2,55.0,50.7,46.0,79,56,36,30.20,30.04,5,1,9,0.00
2013-4-28,84.4,70.9,58.8,55.0,46.6,37.0,60,43,29,30.04,29.87,8,2,15,0.00
2013-4-29,85.3,71.4,58.8,57.0,49.5,41.0,73,49,21,29.87,29.74,7,1,11,0.00
2013-4-30,79.0,64.7,54.6,51.0,46.0,35.0,77,55,22,29.79,29.72,7,1,16,0.00
2013-5-9,73.9,48.4,54.5,54.0,14.9,-99.9,91,52,50,30.08,30.07,3,-374,8,0.00
2013-5-10,82.0,63.4,56.3,59.3,55.2,52.1,90,76,44,30.14,30.05,8,2,12,0.00
2013-5-11,89.8,75.1,61.9,62.4,58.1,54.0,85,58,35,30.10,30.02,9,1,10,0.00
2013-5-12,90.8,74.8,64.6,60.2,51.4,37.0,75,50,15,30.09,29.98,8,2,10,0.00
2013-5-13,89.4,74.5,59.3,54.0,46.7,38.0,64,41,17,30.03,29.90,4,1,8,0.00
2013-5-14,85.1,78.3,62.1,56.2,51.8,42.0,60,40,31,29.91,29.84,9,2,12,0.00
2013-5-15,75.4,64.8,52.4,51.7,46.1,42.0,70,52,37,30.00,29.90,13,3,15,0.00
2013-5-16,67.2,58.7,52.5,51.0,47.9,43.0,84,68,53,30.01,29.93,11,5,14,0.00
2013-5-17,72.0,58.2,45.6,50.9,45.2,38.0,93,65,32,30.07,29.95,9,3,12,0.00
2013-5-18,77.9,62.5,46.5,48.0,42.9,38.0,80,52,28,30.14,30.06,4,1,10,0.00
2013-5-19,79.6,68.4,54.3,51.0,44.3,40.0,66,44,27,30.11,29.97,9,2,15,0.00
2013-5-20,86.1,70.1,59.5,46.1,36.8,30.1,44,31,14,30.00,29.90,16,3,16,0.00
2013-5-21,77.7,65.5,55.1,46.9,41.3,31.0,69,43,19,29.92,29.84,11,3,15,0.00
2013-5-22,67.4,52.6,40.2,44.5,27.1,16.0,68,40,15,29.96,29.89,11,1,11,0.00
2013-5-23,70.3,56.0,40.6,42.0,33.9,26.0,71,46,27,30.00,29.90,10,2,12,0.00
2013-5-24,75.9,61.5,47.0,42.0,36.9,30.0,66,43,23,30.01,29.92,5,1,12,0.00
2013-5-25,74.3,59.7,45.7,46.0,40.0,32.0,73,51,22,30.01,29.94,6,2,11,0.00
2013-5-26,73.5,60.0,46.9,50.0,46.4,42.0,88,64,37,30.09,30.00,11,4,13,0.00
2013-5-27,60.4,55.6,47.4,52.6,48.4,44.3,95,77,64,30.09,29.99,9,3,12,0.07
2013-5-28,74.6,61.6,52.5,56.6,52.3,49.9,98,75,43,29.99,29.88,9,1,9,0.01
2013-5-30,81.4,69.0,55.2,53.0,46.3,36.0,78,48,24,29.94,29.88,9,2,11,0.00
2013-5-31,88.7,72.2,54.3,49.0,44.1,40.0,64,40,19,29.96,29.87,6,1,14,0.00
2013-6-1,92.8,77.9,63.2,50.0,45.1,39.0,56,34,16,29.87,29.73,5,1,8,0.00
2013-6-2,94.3,79.0,64.5,54.0,49.1,44.0,55,38,19,29.73,29.59,10,2,14,0.00
2013-6-3,93.2,78.8,64.3,56.4,52.5,46.0,62,42,23,29.87,29.70,8,1,9,0.00
2013-6-4,83.0,69.3,55.9,56.6,53.8,50.5,82,60,38,29.98,29.75,9,2,9,0.00
2013-6-5,87.5,66.5,55.0,58.0,52.3,46.8,80,62,35,30.05,29.95,13,4,13,0.00
2013-6-6,91.9,71.5,59.2,60.8,55.8,48.8,80,60,34,29.99,29.79,9,2,13,0.00
2013-6-7,100.7,77.3,66.1,64.0,57.5,47.0,76,54,17,29.83,29.70,11,1,15,0.00
2013-6-8,106.1,81.6,72.5,63.0,53.1,46.2,50,38,19,29.71,29.60,7,2,14,0.00
2013-6-9,80.4,71.5,61.2,60.0,54.1,51.0,69,55,41,29.82,29.64,13,4,18,0.00
2013-6-10,70.8,60.7,52.5,53.0,51.0,49.0,90,72,48,29.93,29.78,11,3,15,0.00
2013-6-11,82.4,75.0,65.8,53.0,52.1,51.0,61,46,36,29.89,29.87,2,0,5,0.00
2013-6-12,84.7,71.1,57.8,54.0,48.6,40.0,79,49,22,29.92,29.86,7,2,10,0.00
2013-6-13,81.5,67.9,52.2,47.0,39.6,28.0,68,40,15,30.05,29.92,8,2,10,0.00
2013-6-14,87.3,70.7,55.3,45.0,39.1,33.0,45,33,18,29.97,29.80,7,1,13,0.00
2013-6-15,88.6,70.1,59.3,48.0,42.2,31.0,55,40,15,29.91,29.80,7,2,11,0.00
2013-6-16,89.3,73.8,58.4,52.0,43.5,34.0,54,36,15,30.01,29.91,4,1,9,0.00
2013-6-17,85.6,71.2,59.1,52.0,46.8,43.0,66,44,23,30.01,29.93,9,2,12,0.00
2013-6-18,75.0,62.4,52.3,52.0,48.1,43.0,88,62,34,29.96,29.89,11,5,15,0.00
2013-6-19,71.8,56.8,47.8,46.0,40.1,27.0,86,60,19,30.01,29.95,9,3,10,0.00
2013-6-20,81.7,67.9,53.4,46.0,38.7,29.0,54,37,16,29.98,29.91,7,1,11,0.00
2013-6-21,85.1,71.2,57.5,48.0,41.5,34.0,49,36,20,29.94,29.87,9,1,12,0.00
2013-6-22,89.7,74.9,58.6,49.0,42.1,24.0,60,35,10,29.89,29.79,4,1,9,0.00
2013-6-23,68.1,62.3,58.4,54.0,46.2,40.0,72,57,36,29.82,29.74,11,6,16,0.00
2013-6-25,66.8,63.0,57.4,66.0,62.1,57.0,99,97,91,30.02,29.91,7,1,10,0.18
2013-6-26,85.8,72.5,61.1,66.0,62.2,57.0,99,73,46,30.05,29.97,4,1,8,0.00
2013-6-27,94.1,77.4,63.7,66.0,61.8,56.0,90,62,31,30.06,29.98,5,1,11,0.00
2013-6-28,100.7,83.6,67.9,63.0,58.7,50.0,79,48,19,30.00,29.86,3,1,8,0.00
2013-6-29,102.4,87.4,74.0,65.0,57.1,48.0,55,38,17,29.89,29.75,12,2,17,0.00
2013-6-30,103.4,88.0,72.7,63.0,57.7,50.0,60,39,19,29.78,29.70,9,2,15,0.00
2013-7-1,104.2,88.4,74.0,66.0,59.3,50.0,59,40,18,29.80,29.73,6,1,12,0.00
2013-7-2,95.9,84.4,77.9,63.0,61.4,58.0,58,47,32,29.81,29.74,8,2,15,0.00
2013-7-4,101.1,92.6,81.5,61.3,59.3,55.0,48,34,21,29.73,29.59,8,1,8,0.00
2013-7-5,89.5,75.1,68.5,59.9,48.8,42.4,56,40,26,29.95,29.65,13,6,18,0.00
2013-7-6,91.7,72.7,59.2,57.0,52.6,46.0,79,53,24,29.95,29.74,3,1,7,0.00
2013-7-7,94.0,77.9,61.7,57.0,48.9,32.0,67,40,16,29.86,29.79,4,1,10,0.00
2013-7-8,94.8,77.0,63.1,53.0,46.5,38.0,63,38,15,29.98,29.85,4,1,8,0.00
2013-7-9,101.3,85.1,64.4,49.1,42.5,33.0,54,26,10,30.05,29.95,10,3,10,0.00
2013-7-10,97.9,81.6,71.6,53.0,43.7,34.0,36,27,14,29.97,29.86,9,3,12,0.00
2013-7-11,91.4,71.6,61.0,46.0,41.4,32.0,52,35,14,29.92,29.86,9,3,9,0.00
2013-7-12,88.9,73.6,59.8,51.0,43.8,36.0,50,36,15,29.95,29.89,4,1,10,0.00
2013-7-13,95.0,82.9,60.7,48.0,42.6,36.0,52,26,14,29.98,29.91,6,1,7,0.00
2013-7-14,94.4,79.7,66.1,53.0,46.8,43.0,47,33,18,29.96,29.87,9,1,9,0.00
2013-7-15,89.6,74.5,64.9,53.0,46.5,37.0,56,39,19,29.89,29.81,5,1,9,0.00
2013-7-16,82.8,60.6,53.0,53.0,44.1,38.0,78,56,30,30.03,29.85,8,3,8,0.00
2013-7-17,88.6,71.8,54.6,55.0,48.4,31.0,83,49,17,30.11,30.02,4,1,11,0.00
2013-7-18,94.3,78.4,63.3,54.0,44.1,31.0,54,33,12,30.04,29.91,5,1,9,0.00
2013-7-19,97.4,81.4,65.8,55.0,48.6,42.0,52,34,16,29.92,29.79,4,1,8,0.00
2013-7-20,99.7,83.2,70.5,57.0,52.9,48.0,51,37,17,29.81,29.69,9,2,13,0.00
2013-7-21,96.0,82.2,70.2,59.0,52.4,42.0,58,37,23,29.89,29.73,10,2,12,0.00
2013-7-22,92.5,78.0,65.7,51.0,44.9,35.0,51,32,18,30.00,29.89,7,2,10,0.00
2013-7-23,92.7,78.2,67.5,51.0,43.6,38.0,40,30,21,30.02,29.88,12,2,19,0.00
2013-7-24,96.2,82.1,67.3,57.0,53.2,43.0,57,38,25,29.98,29.90,3,1,8,0.00
2013-7-25,99.6,84.3,72.0,62.0,57.5,56.0,59,42,25,29.98,29.91,5,2,13,0.00
2013-7-26,97.4,82.8,70.4,58.0,54.9,49.0,59,40,25,30.05,29.97,8,2,12,0.00
2013-7-27,94.0,82.6,69.2,57.0,54.3,47.0,62,39,25,29.99,29.84,9,2,11,0.00
2013-7-28,92.3,76.9,64.7,57.0,51.2,38.0,62,42,27,29.87,29.78,5,2,10,0.00
2013-7-29,83.7,70.5,56.9,54.0,49.5,40.0,73,49,28,30.01,29.82,4,1,8,0.00
2013-7-30,90.5,73.4,56.1,54.0,48.8,42.0,75,46,20,30.11,30.01,3,1,7,0.00
2013-7-31,89.5,73.9,59.9,53.0,48.3,33.0,64,43,15,30.04,29.95,8,3,9,0.00
2013-8-1,86.3,71.1,55.2,51.0,45.5,40.0,66,42,22,30.03,29.93,10,3,13,0.00
2013-8-2,89.4,73.7,58.7,49.0,41.6,35.0,45,33,19,29.95,29.86,8,1,11,0.00
2013-8-3,91.4,75.3,61.0,51.8,45.0,40.1,53,36,17,29.95,29.88,9,2,9,0.00
2013-8-4,91.3,71.0,60.6,53.0,46.0,41.1,59,43,20,29.97,29.91,7,2,8,0.00
2013-8-5,89.6,74.9,59.5,54.0,45.7,39.0,57,37,19,29.99,29.91,7,1,9,0.00
2013-8-6,88.5,72.1,59.0,54.0,48.0,43.0,68,45,23,30.00,29.94,8,2,12,0.00
2013-8-7,77.9,63.9,53.7,56.0,53.3,51.0,93,71,42,30.09,30.00,10,3,14,0.00
2013-8-8,83.2,61.1,54.3,54.2,51.1,45.1,86,73,28,30.04,29.92,9,3,9,0.00
2013-8-9,82.8,68.7,53.4,55.0,50.0,46.0,86,54,30,29.97,29.91,7,2,10,0.00
2013-8-10,86.4,70.0,53.8,56.0,50.7,47.0,79,53,26,30.03,29.97,6,1,8,0.00
2013-8-11,87.4,74.0,59.9,54.0,48.9,43.0,65,43,25,30.01,29.92,8,1,9,0.00
2013-8-12,89.9,75.4,62.6,52.0,45.1,41.0,54,36,20,29.98,29.93,7,2,14,0.00
2013-8-13,93.1,77.3,62.6,50.0,44.8,42.0,50,33,18,29.99,29.91,6,1,11,0.00
2013-8-14,95.1,79.4,66.6,51.0,45.6,42.0,43,32,17,29.95,29.87,6,2,12,0.00
2013-8-15,94.5,77.8,64.5,55.0,47.4,42.0,48,35,20,29.95,29.89,6,2,9,0.00
2013-8-16,96.1,79.9,64.8,55.0,45.9,37.0,49,33,13,29.98,29.92,5,2,9,0.00
2013-8-17,94.5,79.5,67.9,58.0,49.3,42.0,53,37,17,29.97,29.84,6,2,11,0.00
2013-8-18,96.6,82.0,67.3,57.0,52.2,47.0,54,37,22,29.90,29.78,6,1,10,0.00
2013-8-19,96.6,84.8,75.7,61.0,54.6,45.0,46,36,17,29.91,29.79,6,1,11,0.00
2013-8-20,95.3,81.7,69.4,61.0,56.8,54.0,62,44,27,29.87,29.78,8,2,14,0.00
2013-8-21,90.6,76.8,66.0,57.0,50.8,40.0,72,43,18,29.91,29.83,8,2,10,0.00
2013-8-22,88.3,75.5,61.9,54.0,49.4,45.0,62,41,22,29.93,29.86,6,1,9,0.00
2013-8-23,88.5,72.1,56.7,55.0,48.8,44.0,68,46,24,29.92,29.80,5,2,10,0.00
2013-8-24,85.1,71.9,59.2,55.0,49.1,45.0,65,46,28,29.88,29.82,9,3,12,0.00
2013-8-25,85.0,70.6,57.4,60.0,54.5,51.0,81,59,33,29.97,29.89,9,2,14,0.00
2013-8-26,85.7,71.5,57.3,57.0,52.8,47.0,84,55,29,30.01,29.91,4,2,7,0.00
2013-8-27,89.3,75.3,62.5,54.0,49.5,45.0,61,42,26,29.92,29.82,8,2,9,0.00
2013-8-28,90.7,76.4,61.9,56.0,48.6,40.0,62,40,22,29.93,29.83,4,1,8,0.00
2013-8-29,91.2,76.1,61.2,55.0,48.4,44.0,60,40,22,30.05,29.93,5,1,7,0.00
2013-8-30,93.2,77.6,63.6,54.0,47.5,44.0,54,36,19,30.05,29.93,6,1,12,0.00
2013-8-31,95.7,79.5,65.5,52.0,46.0,37.0,50,32,18,29.97,29.88,6,2,9,0.00
2013-9-1,88.9,76.7,67.3,55.0,47.1,41.0,51,36,22,29.93,29.87,6,2,9,0.00
2013-9-2,73.2,67.2,62.0,67.0,60.0,48.0,94,80,41,29.98,29.89,7,1,9,0.31
2013-9-3,82.7,70.9,60.5,63.0,55.9,48.0,95,64,35,30.02,29.94,7,1,10,0.01
2013-9-4,86.0,71.0,58.3,56.0,51.3,45.0,82,53,29,30.04,29.94,6,2,9,0.00
2013-9-5,83.7,70.3,56.9,54.0,49.3,44.0,78,50,30,30.01,29.94,9,2,14,0.00
2013-9-6,90.4,73.5,57.2,50.0,44.0,37.0,60,38,18,30.01,29.88,4,1,11,0.00
2013-9-7,95.0,78.8,64.8,50.0,46.9,45.0,52,35,19,29.92,29.83,5,1,9,0.00
2013-9-8,95.6,80.8,68.0,52.0,45.7,41.0,46,31,16,29.88,29.77,9,2,14,0.00
2013-9-9,95.7,81.7,67.8,53.0,46.5,41.0,39,30,20,29.81,29.68,6,1,12,0.00
2013-9-10,89.7,85.1,65.0,56.0,52.6,42.4,67,33,27,29.87,29.71,9,2,14,0.00
2013-9-11,81.5,67.3,56.6,57.0,54.7,52.0,89,66,37,30.00,29.87,9,2,10,0.00
2013-9-12,87.1,70.4,55.9,59.0,54.7,52.0,89,61,32,30.00,29.89,5,1,9,0.00
2013-9-13,87.5,75.3,63.0,59.0,55.6,52.0,70,52,37,29.91,29.74,3,1,7,0.07
2013-9-14,88.7,74.4,63.2,59.0,56.3,54.8,77,55,34,29.80,29.71,7,2,7,0.00
2013-9-15,83.5,68.6,57.5,55.2,51.1,36.0,78,57,19,29.86,29.74,14,4,16,0.00
2013-9-16,84.6,70.5,57.0,53.0,48.1,42.0,63,47,30,29.91,29.79,7,2,11,0.00
2013-9-17,75.4,66.2,57.1,52.0,49.6,46.0,78,57,40,29.91,29.80,12,4,16,0.00
2013-9-18,80.7,67.1,55.1,48.0,43.6,39.0,64,45,25,29.94,29.84,6,1,12,0.00
2013-9-19,87.7,70.8,55.4,44.0,41.4,39.0,59,38,18,29.91,29.79,5,1,9,0.00
2013-9-20,80.9,67.8,58.8,57.0,45.1,33.0,86,47,20,29.88,29.77,10,3,12,0.00
2013-9-21,63.8,56.5,49.7,57.0,53.3,48.0,96,89,69,29.94,29.84,10,2,19,0.91
2013-9-22,69.4,57.2,47.2,53.0,49.1,46.0,97,77,49,30.02,29.91,5,1,8,0.01
2013-9-23,77.2,63.4,50.6,55.0,50.8,47.0,88,66,45,30.04,29.96,8,1,11,0.00
2013-9-24,73.9,63.4,54.0,55.0,51.0,45.0,87,66,37,29.98,29.86,13,3,16,0.00
2013-9-25,67.3,57.8,50.7,50.0,42.3,31.0,90,61,29,29.92,29.82,7,1,10,0.00
2013-9-26,70.1,58.0,44.7,41.0,36.0,30.0,67,46,31,30.00,29.82,13,2,17,0.00
2013-9-27,74.2,60.9,48.8,39.0,35.3,31.0,57,40,24,30.11,30.00,11,2,15,0.00
2013-9-28,79.6,65.1,52.7,43.0,38.8,35.0,62,41,20,30.12,30.01,5,2,11,0.00
2013-9-29,73.9,63.4,52.3,56.0,49.3,39.0,84,61,44,30.11,30.04,10,2,12,0.00
2013-9-30,74.9,63.9,58.4,59.0,56.4,55.0,94,78,53,30.09,29.96,6,2,11,0.00
2013-10-1,75.3,63.1,54.4,55.0,51.2,46.0,92,68,40,30.00,29.92,4,1,7,0.00
2013-10-2,74.4,62.0,52.6,52.0,44.8,39.0,83,57,29,30.00,29.91,4,1,8,0.00
2013-10-3,74.4,60.3,46.0,40.0,32.2,17.0,75,41,13,30.02,29.92,12,3,26,0.00
2013-10-4,79.5,68.4,60.5,33.0,24.7,19.0,26,20,15,30.12,30.00,11,3,15,0.00
2013-10-5,79.3,65.2,51.8,33.0,26.7,19.0,35,24,15,30.23,30.12,6,2,9,0.00
2013-10-6,81.1,67.0,54.1,38.0,31.8,23.0,43,29,12,30.16,30.03,7,2,11,0.00
2013-10-7,81.6,67.7,56.2,34.0,30.0,27.0,35,26,15,30.02,29.87,6,2,11,0.00
2013-10-8,70.8,61.6,54.4,39.0,33.9,28.0,49,36,29,29.89,29.67,7,1,14,0.00
2013-10-9,69.4,58.7,47.9,42.3,40.3,35.0,74,52,34,29.77,29.57,8,1,9,0.01
2013-10-10,68.2,49.7,45.4,45.0,38.8,37.0,77,67,41,30.03,29.77,8,1,12,0.00
2013-10-11,71.0,59.4,48.8,44.0,42.2,40.0,72,55,37,30.09,29.99,5,2,10,0.00
2013-10-12,72.3,59.4,48.6,44.0,41.1,39.0,71,53,34,30.01,29.89,9,1,11,0.00
2013-10-13,71.6,58.9,47.3,46.0,41.3,39.0,75,54,33,30.07,29.90,6,1,13,0.00
2013-10-14,72.0,60.7,49.0,41.0,37.0,33.0,55,43,28,30.15,30.03,7,1,10,0.00
2013-10-15,77.4,62.6,49.7,38.0,33.8,25.0,57,36,22,30.07,29.97,10,2,11,0.00
2013-10-16,78.0,64.3,52.7,38.0,31.1,22.0,42,29,21,30.13,30.02,4,1,9,0.00
2013-10-17,76.3,63.5,53.0,40.0,34.9,33.0,49,36,22,30.09,29.98,7,2,12,0.00
2013-10-18,78.9,63.6,49.6,39.0,35.1,31.0,50,36,22,30.07,29.99,5,1,9,0.00
2013-10-19,81.3,66.3,55.3,40.0,35.6,32.0,44,34,21,30.09,30.02,6,2,10,0.00
2013-10-20,78.2,65.4,54.5,41.0,36.6,33.0,47,36,23,30.03,29.91,7,1,12,0.00
2013-10-21,78.1,64.6,52.9,42.0,38.8,34.0,52,40,27,30.00,29.92,4,1,9,0.00
2013-10-22,80.8,66.6,56.3,41.0,34.5,29.0,48,32,18,30.02,29.92,5,2,9,0.00
2013-10-23,79.4,65.9,54.6,37.0,31.5,27.0,35,28,15,29.95,29.87,6,1,12,0.00
2013-10-24,74.3,63.7,55.7,46.0,37.3,27.0,60,39,26,30.06,29.92,7,1,10,0.00
2013-10-25,74.0,61.1,51.0,43.0,35.6,27.0,49,40,26,30.17,30.06,3,1,6,0.00
2013-10-26,76.2,62.5,50.6,42.0,36.8,31.0,51,40,26,30.17,30.03,4,1,7,0.00
2013-10-27,71.8,57.8,48.1,46.0,37.5,29.0,85,50,30,30.03,29.59,16,4,20,0.06
2013-10-28,54.7,48.4,43.3,45.0,43.0,39.0,98,83,57,29.89,29.59,10,2,17,0.05
2013-10-29,55.5,50.6,46.2,46.0,43.9,42.0,89,78,63,30.07,29.89,6,1,10,0.00
2013-10-30,62.0,50.9,40.9,43.0,39.9,37.0,87,68,44,30.18,30.07,7,1,13,0.00
2013-10-31,67.0,53.2,41.5,44.0,41.0,38.0,87,66,42,30.21,30.12,5,2,9,0.00
2013-11-1,72.0,59.8,48.5,43.0,40.1,37.0,77,51,31,30.21,30.05,7,2,9,0.00
2013-11-2,72.2,58.9,47.9,44.0,39.9,35.0,65,51,30,30.06,29.90,5,1,9,0.00
2013-11-3,59.1,49.9,41.9,43.0,33.1,28.0,88,55,32,30.02,29.91,8,1,11,0.00
2013-11-4,64.0,51.5,38.8,35.0,28.9,21.0,79,46,25,30.09,29.90,10,2,23,0.00
2013-11-5,65.4,53.0,41.9,34.0,28.7,21.0,60,40,30,30.28,30.07,7,1,15,0.00
2013-11-6,68.1,55.8,45.0,39.0,35.6,33.0,64,49,32,30.31,30.22,7,1,12,0.00
2013-11-7,74.4,60.3,52.1,39.0,34.7,30.0,56,41,20,30.22,30.08,4,1,8,0.00
2013-11-8,72.6,58.7,49.1,37.0,32.6,27.0,54,39,22,30.11,29.98,7,1,10,0.00
2013-11-9,71.5,58.7,48.4,42.0,38.2,35.0,61,48,33,30.06,30.01,6,1,10,0.00
2013-11-10,73.3,59.5,51.0,38.0,35.2,30.0,57,42,26,30.12,30.06,6,2,12,0.00
2013-11-11,71.1,59.1,49.2,34.0,29.5,23.0,42,33,22,30.21,30.10,6,1,12,0.00
2013-11-12,68.6,60.1,55.2,40.0,34.2,29.0,50,38,28,30.28,30.16,6,1,10,0.00
2013-11-13,70.8,59.9,50.8,41.0,38.0,35.0,56,45,31,30.25,30.09,4,1,10,0.00
2013-11-14,69.8,56.4,48.8,43.0,39.5,34.0,72,54,38,30.12,29.85,5,0,7,0.00
2013-11-15,63.0,51.5,41.8,43.0,36.2,30.0,84,59,33,29.85,29.72,4,1,9,0.00
2013-11-16,59.2,49.5,42.6,40.0,36.0,33.0,72,61,46,29.96,29.77,7,1,9,0.00
2013-11-17,62.2,49.9,40.5,45.0,38.8,34.0,79,67,46,30.12,29.95,6,1,9,0.00
2013-11-18,61.6,50.1,42.8,45.0,41.0,37.0,84,72,48,30.17,30.09,7,2,10,0.00
2013-11-19,55.6,49.9,45.2,50.0,47.3,43.0,97,91,80,30.14,29.99,8,2,11,0.50
2013-11-20,52.1,50.5,48.7,52.0,50.2,48.0,99,99,97,29.99,29.88,9,3,13,0.54
2013-11-21,58.6,52.0,45.9,49.0,36.7,22.3,99,62,31,30.05,29.90,27,6,45,0.04
2013-11-22,66.0,55.6,38.9,40.0,17.8,4.5,81,25,10,30.09,29.96,26,6,27,0.00
2013-11-23,60.0,48.7,40.4,42.0,38.1,31.0,87,68,44,30.16,30.02,5,1,8,0.00
2013-11-24,60.0,47.1,38.3,42.0,36.7,30.0,82,68,47,30.30,30.16,4,1,8,0.00
2013-11-25,62.1,47.2,40.3,42.0,36.6,34.0,82,68,42,30.38,30.30,6,2,12,0.00
2013-11-26,61.5,52.4,43.7,44.0,41.7,37.0,80,68,51,30.28,30.07,5,1,9,0.00
2013-11-27,65.4,48.8,44.6,44.6,37.9,34.0,77,67,38,30.07,29.88,9,2,10,0.00
2013-11-28,67.4,57.0,48.4,41.8,38.6,35.0,67,51,35,30.08,29.89,11,2,15,0.00
2013-11-29,65.8,53.0,44.8,41.9,38.5,35.0,72,59,39,30.23,30.08,13,2,15,0.00
2013-11-30,62.9,51.9,46.1,42.3,38.8,34.6,77,62,44,30.28,30.19,12,2,12,0.00
2013-12-1,63.9,54.5,43.3,43.4,40.8,34.8,81,61,44,30.35,30.23,7,2,9,0.00
2013-12-2,62.2,52.4,44.1,45.0,40.6,35.8,83,65,50,30.24,29.91,13,2,16,0.00
2013-12-3,50.1,45.6,34.6,48.4,34.4,18.5,97,68,36,29.90,29.78,17,6,17,0.00
2013-12-4,44.9,32.8,27.4,24.6,20.0,18.0,72,60,39,30.09,29.90,11,1,11,0.00
2013-12-5,43.2,33.5,0.0,24.6,19.7,15.4,75,57,34,30.22,30.06,12,1,12,0.00
2013-12-6,43.1,33.4,27.0,31.2,24.7,18.8,97,72,46,30.25,29.97,24,4,24,0.00
2013-12-7,36.4,32.2,27.6,35.6,31.0,25.3,98,96,91,30.30,29.95,15,1,15,0.15
2013-12-8,37.7,31.8,24.3,28.5,24.6,19.9,92,75,59,30.35,30.17,13,3,13,0.07
2013-12-9,42.8,30.2,23.8,29.0,24.2,20.8,90,79,52,30.40,30.24,11,1,11,0.00
2013-12-10,49.2,37.7,30.1,31.0,27.2,24.0,86,68,41,30.40,30.16,4,1,9,0.00
2013-12-11,54.2,41.4,32.0,34.0,31.0,28.0,89,69,42,30.21,30.15,6,1,11,0.00
2013-12-12,60.5,45.6,38.0,35.0,29.1,25.0,69,54,34,30.21,30.10,6,2,11,0.00
2013-12-13,55.1,44.4,36.0,32.0,28.2,23.0,71,54,36,30.26,30.16,7,2,12,0.00
2013-12-14,56.8,44.9,34.6,37.0,31.6,27.0,75,61,39,30.36,30.27,4,1,10,0.00
2013-12-15,61.0,48.4,39.9,36.0,32.1,27.0,70,55,37,30.33,30.19,6,1,9,0.00
2013-12-16,63.8,49.8,43.7,40.0,34.9,31.0,69,57,39,30.32,30.17,9,2,10,0.00
2013-12-17,66.1,54.5,46.3,43.0,36.5,31.0,58,51,38,30.22,30.04,9,1,9,0.00
2013-12-18,61.8,52.6,44.5,42.1,36.4,30.5,81,55,38,30.04,29.71,13,2,13,0.00
2013-12-19,56.9,43.2,39.3,43.0,36.9,21.0,89,80,32,29.90,29.67,9,1,14,0.00
2013-12-20,52.2,41.7,32.7,27.6,22.6,19.7,62,47,32,30.02,29.89,11,2,11,0.00
2013-12-21,54.5,48.1,36.8,37.0,33.7,27.0,78,58,47,30.11,29.97,9,2,9,0.00
2013-12-22,58.4,46.0,36.7,38.5,35.1,31.0,82,67,47,30.31,30.10,6,1,7,0.00
2013-12-23,59.6,51.3,41.3,41.0,37.5,34.0,81,61,44,30.41,30.23,7,2,9,0.00
2013-12-24,61.2,54.5,52.7,39.0,37.2,32.0,59,52,52,30.33,30.21,6,2,11,0.00
2013-12-25,62.5,54.2,47.2,37.2,36.9,25.0,55,52,47,30.32,30.22,6,2,10,0.00
2013-12-26,65.4,52.1,44.1,36.0,29.6,23.0,58,43,24,30.27,30.18,6,2,13,0.00
2013-12-27,62.1,50.1,43.3,37.0,30.0,22.0,63,47,28,30.25,30.11,8,1,9,0.00
2013-12-28,62.5,51.9,39.7,34.0,26.1,20.0,61,38,22,30.12,30.01,12,3,19,0.00
2013-12-29,58.7,46.9,37.9,35.0,27.2,21.0,56,47,36,30.23,30.08,4,1,10,0.00
2013-12-30,61.0,50.4,41.6,34.0,28.4,23.0,51,43,32,30.28,30.22,5,2,13,0.00
2013-12-31,63.0,49.7,43.4,34.0,28.9,25.0,55,45,30,30.29,30.17,8,1,8,0.00
2014-1-1,63.1,48.8,40.0,35.0,30.4,25.0,62,50,34,30.24,30.16,4,1,8,0.00
2014-1-2,64.2,51.8,44.0,39.0,35.5,32.0,65,55,37,30.20,30.08,4,1,8,0.00